Time;durP1;ratioP1;P1;durP2;ratioP2;P2;SDS_P1;SDS_P2;PMS_P1;PMS_P2;Temp;Humidity;BMP_temperature;BMP_pressure;BME280_temperature;BME280_humidity;BME280_pressure;Samples;Min_cycle;Max_cycle;Signal;HPM_P1;HPM_P2
2021/05/31 00:00:50;;;;;;;6.93;6.33;;;9.10;99.90;;;;;;5030240;28;20199;-80
2021/05/31 00:03:16;;;;;;;7.17;6.47;;;9.10;99.90;;;;;;5046727;28;20197;-80
2021/05/31 00:05:43;;;;;;;7.63;6.90;;;9.00;99.90;;;;;;5030985;28;20226;-80
2021/05/31 00:08:10;;;;;;;7.10;6.40;;;9.00;99.90;;;;;;5028522;28;20704;-80
2021/05/31 00:10:36;;;;;;;7.37;6.70;;;9.00;99.90;;;;;;5046877;28;20206;-80
2021/05/31 00:13:02;;;;;;;9.77;6.60;;;9.00;99.90;;;;;;5024923;28;20202;-80
2021/05/31 00:15:29;;;;;;;7.67;6.97;;;9.00;99.90;;;;;;5045671;28;20198;-80
2021/05/31 00:17:56;;;;;;;11.07;7.30;;;8.90;99.90;;;;;;5025838;28;20226;-80
2021/05/31 00:20:22;;;;;;;10.13;7.60;;;8.80;99.90;;;;;;5028270;28;20282;-80
2021/05/31 00:22:50;;;;;;;7.87;7.17;;;8.80;99.90;;;;;;5026260;28;20206;-80
2021/05/31 00:25:17;;;;;;;8.50;7.63;;;8.70;99.90;;;;;;5028956;28;20305;-80
2021/05/31 00:27:44;;;;;;;7.60;6.97;;;8.70;99.90;;;;;;5029446;28;20209;-80
2021/05/31 00:30:13;;;;;;;7.60;6.90;;;8.70;99.90;;;;;;5029506;28;20203;-80
2021/05/31 00:32:39;;;;;;;7.47;6.80;;;8.70;99.90;;;;;;5019880;28;20197;-80
2021/05/31 00:35:08;;;;;;;7.53;6.80;;;8.60;99.90;;;;;;5030601;28;20259;-80
2021/05/31 00:37:35;;;;;;;7.47;6.80;;;8.50;99.90;;;;;;5020097;28;20193;-80
2021/05/31 00:40:04;;;;;;;8.10;7.30;;;8.50;99.90;;;;;;5047105;28;20233;-80
2021/05/31 00:42:30;;;;;;;8.27;7.50;;;8.50;99.90;;;;;;5047505;28;20204;-80
2021/05/31 00:44:57;;;;;;;8.33;7.00;;;8.40;99.90;;;;;;5029353;28;20731;-81
2021/05/31 00:47:23;;;;;;;11.23;7.87;;;8.40;99.90;;;;;;5027789;28;20259;-80
2021/05/31 00:49:49;;;;;;;8.17;7.37;;;8.30;99.90;;;;;;5030015;28;20217;-80
2021/05/31 00:52:16;;;;;;;8.67;7.77;;;8.20;99.90;;;;;;5028032;28;20201;-79
2021/05/31 00:54:43;;;;;;;7.90;7.10;;;8.10;99.90;;;;;;5044584;28;20220;-80
2021/05/31 00:57:10;;;;;;;9.40;8.60;;;8.10;99.90;;;;;;5044727;28;20199;-79
2021/05/31 00:59:36;;;;;;;8.13;7.43;;;8.00;99.90;;;;;;5031547;28;20226;-80
2021/05/31 01:02:03;;;;;;;8.67;7.87;;;7.90;99.90;;;;;;5026075;28;20201;-80
2021/05/31 01:04:30;;;;;;;8.63;7.83;;;7.90;99.90;;;;;;5046742;28;20239;-80
2021/05/31 01:07:04;;;;;;;8.47;7.37;;;7.90;99.90;;;;;;5043196;28;20254;-80
2021/05/31 01:09:36;;;;;;;8.43;7.10;;;7.90;99.90;;;;;;5040599;28;20236;-80
2021/05/31 01:12:12;;;;;;;8.30;7.40;;;7.90;99.90;;;;;;5023621;28;20236;-80
2021/05/31 01:14:46;;;;;;;7.60;7.00;;;8.00;99.90;;;;;;5036512;28;20205;-80
2021/05/31 01:17:15;;;;;;;8.17;7.37;;;7.90;99.90;;;;;;5026877;28;20204;-80
2021/05/31 01:20:05;;;;;;;7.90;7.20;;;7.90;99.90;;;;;;5047012;28;20216;-80
2021/05/31 01:22:35;;;;;;;7.43;6.70;;;7.80;99.90;;;;;;5031826;28;20639;-80
2021/05/31 01:25:22;;;;;;;8.37;7.57;;;7.70;99.90;;;;;;5040206;28;20212;-80
2021/05/31 01:28:21;;;;;;;7.97;7.17;;;7.70;99.90;;;;;;5029976;28;20229;-80
2021/05/31 01:30:50;;;;;;;7.33;6.73;;;7.70;99.90;;;;;;5043175;28;20208;-80
2021/05/31 01:33:21;;;;;;;7.77;7.10;;;7.70;99.90;;;;;;5045082;28;20196;-80
2021/05/31 01:35:47;;;;;;;7.83;7.20;;;7.70;99.90;;;;;;5041055;28;20208;-80
2021/05/31 01:38:17;;;;;;;7.43;6.80;;;7.70;99.90;;;;;;5039638;28;20216;-80
2021/05/31 01:40:44;;;;;;;8.03;7.33;;;7.60;99.90;;;;;;5043540;28;20200;-80
2021/05/31 01:43:11;;;;;;;7.73;7.07;;;7.60;99.90;;;;;;5042394;28;20205;-80
2021/05/31 01:45:37;;;;;;;8.83;7.03;;;7.60;99.90;;;;;;5045916;28;20425;-80
2021/05/31 01:48:09;;;;;;;7.77;7.17;;;7.60;99.90;;;;;;5044179;28;20215;-80
2021/05/31 01:50:36;;;;;;;8.63;7.80;;;7.60;99.90;;;;;;5039762;28;20213;-80
2021/05/31 01:53:04;;;;;;;8.37;7.67;;;7.60;99.90;;;;;;5044027;28;20207;-80
2021/05/31 01:55:30;;;;;;;7.97;7.37;;;7.60;99.90;;;;;;5022812;28;20200;-80
2021/05/31 01:57:57;;;;;;;7.90;7.20;;;7.50;99.90;;;;;;5040739;28;20221;-80
2021/05/31 02:00:24;;;;;;;9.13;8.33;;;7.50;99.90;;;;;;5043225;28;20196;-80
2021/05/31 02:02:52;;;;;;;8.53;7.83;;;7.40;99.90;;;;;;5042947;28;20188;-80
2021/05/31 02:05:20;;;;;;;9.00;8.10;;;7.30;99.90;;;;;;5016939;28;20224;-80
2021/05/31 02:07:46;;;;;;;8.30;7.60;;;7.30;99.90;;;;;;5025024;28;20208;-80
2021/05/31 02:10:15;;;;;;;8.87;7.97;;;7.20;99.90;;;;;;5023757;28;20214;-80
2021/05/31 02:12:50;;;;;;;9.80;8.97;;;7.30;99.90;;;;;;5041588;28;20200;-80
2021/05/31 02:15:20;;;;;;;8.67;7.90;;;7.30;99.90;;;;;;5040541;28;20194;-79
2021/05/31 02:17:54;;;;;;;8.50;7.67;;;7.20;99.90;;;;;;5020291;28;20193;-79
2021/05/31 02:20:25;;;;;;;8.17;7.47;;;7.20;99.90;;;;;;5022155;28;20203;-80
2021/05/31 02:22:55;;;;;;;8.30;7.50;;;7.10;99.90;;;;;;5025711;28;20695;-80
2021/05/31 02:25:22;;;;;;;8.50;7.80;;;7.10;99.90;;;;;;5044850;28;20223;-79
2021/05/31 02:27:50;;;;;;;8.83;7.93;;;7.00;99.90;;;;;;5026101;28;20216;-80
2021/05/31 02:30:18;;;;;;;8.57;7.87;;;7.00;99.90;;;;;;5047041;28;20192;-80
2021/05/31 02:32:50;;;;;;;10.00;8.97;;;6.90;99.90;;;;;;5038850;28;20203;-80
2021/05/31 02:35:17;;;;;;;9.13;7.60;;;6.90;99.90;;;;;;5025477;28;20197;-79
2021/05/31 02:37:45;;;;;;;8.80;8.00;;;6.90;99.90;;;;;;5022475;28;20235;-80
2021/05/31 02:40:12;;;;;;;8.40;7.70;;;6.90;99.90;;;;;;5009176;28;20269;-77
2021/05/31 02:42:39;;;;;;;9.03;8.23;;;6.80;99.90;;;;;;5035022;28;20201;-76
2021/05/31 02:45:06;;;;;;;9.23;8.23;;;6.80;99.90;;;;;;5025999;28;20715;-77
2021/05/31 02:47:33;;;;;;;11.37;7.83;;;6.80;99.90;;;;;;5042447;28;20652;-76
2021/05/31 02:49:59;;;;;;;8.37;7.60;;;6.80;99.90;;;;;;5042425;28;20596;-77
2021/05/31 02:52:25;;;;;;;9.43;8.63;;;6.80;99.90;;;;;;5044797;28;20196;-76
2021/05/31 02:54:53;;;;;;;9.17;8.37;;;6.70;99.90;;;;;;5031462;28;20207;-76
2021/05/31 02:57:19;;;;;;;8.30;7.50;;;6.70;99.90;;;;;;5044336;28;20192;-76
2021/05/31 02:59:46;;;;;;;8.17;7.47;;;6.70;99.90;;;;;;5040597;28;20219;-77
2021/05/31 03:02:12;;;;;;;8.93;8.17;;;6.70;99.90;;;;;;5016675;28;20250;-78
2021/05/31 03:04:39;;;;;;;8.60;7.80;;;6.60;99.90;;;;;;5020485;28;20219;-77
2021/05/31 03:07:05;;;;;;;9.00;8.10;;;6.70;99.90;;;;;;5019423;28;20254;-78
2021/05/31 03:09:31;;;;;;;8.10;7.40;;;6.60;99.90;;;;;;5038724;28;20575;-77
2021/05/31 03:11:59;;;;;;;8.73;7.93;;;6.60;99.90;;;;;;5019628;28;20211;-77
2021/05/31 03:14:25;;;;;;;8.73;8.03;;;6.60;99.90;;;;;;5044388;28;20202;-77
2021/05/31 03:16:52;;;;;;;9.63;8.13;;;6.60;99.90;;;;;;5039724;28;20199;-77
2021/05/31 03:19:18;;;;;;;8.67;7.87;;;6.50;99.90;;;;;;5037908;28;20318;-76
2021/05/31 03:21:44;;;;;;;9.67;8.20;;;6.50;99.90;;;;;;5045615;28;20206;-76
2021/05/31 03:24:11;;;;;;;9.10;8.30;;;6.40;99.90;;;;;;5041573;28;20812;-77
2021/05/31 03:26:37;;;;;;;10.23;7.80;;;6.40;99.90;;;;;;5041940;28;20203;-76
2021/05/31 03:29:05;;;;;;;7.17;6.50;;;6.40;99.90;;;;;;5052606;22;20320;-76
2021/05/31 03:31:31;;;;;;;9.30;8.37;;;6.40;99.90;;;;;;5041589;28;20191;-75
2021/05/31 03:33:57;;;;;;;8.63;7.93;;;6.40;99.90;;;;;;5042981;28;20200;-75
2021/05/31 03:36:24;;;;;;;8.70;7.90;;;6.40;99.90;;;;;;5033309;28;20761;-74
2021/05/31 03:38:50;;;;;;;11.33;7.70;;;6.40;99.90;;;;;;5028367;28;20231;-74
2021/05/31 03:41:16;;;;;;;11.03;7.67;;;6.50;99.90;;;;;;5018567;28;20251;-75
2021/05/31 03:43:43;;;;;;;14.93;8.60;;;6.40;99.90;;;;;;5006793;28;20708;-77
2021/05/31 03:46:10;;;;;;;10.73;8.83;;;6.40;99.90;;;;;;5024504;28;20208;-75
2021/05/31 03:48:37;;;;;;;15.40;8.70;;;6.40;99.90;;;;;;4996438;28;20236;-74
2021/05/31 03:51:11;;;;;;;10.83;8.17;;;6.50;99.90;;;;;;5013031;28;20208;-75
2021/05/31 03:53:39;;;;;;;10.67;8.50;;;6.50;99.90;;;;;;5024350;28;20203;-74
2021/05/31 03:56:06;;;;;;;8.90;7.80;;;6.60;99.90;;;;;;5010423;28;20220;-75
2021/05/31 03:58:34;;;;;;;13.20;8.13;;;6.70;99.90;;;;;;4999668;28;20696;-74
2021/05/31 04:01:01;;;;;;;9.17;8.20;;;6.70;99.90;;;;;;5021112;28;20275;-75
2021/05/31 04:03:29;;;;;;;10.97;9.50;;;6.70;99.90;;;;;;4995301;28;20243;-75
2021/05/31 04:06:05;;;;;;;8.43;5.63;;;6.70;99.90;;;;;;5021084;28;20217;-75
2021/05/31 04:11:35;;;;;;;9.53;6.20;;;6.80;99.90;;;;;;5012729;28;20937;-78
2021/05/31 04:14:03;;;;;;;11.27;5.33;;;6.90;99.90;;;;;;5005398;28;20193;-77
2021/05/31 04:16:29;;;;;;;7.27;5.60;;;6.90;99.90;;;;;;5027658;28;20570;-78
2021/05/31 04:18:57;;;;;;;10.47;9.00;;;7.00;99.90;;;;;;5005224;28;20251;-78
2021/05/31 04:21:23;;;;;;;8.93;8.13;;;7.00;99.90;;;;;;5025584;28;20238;-79
2021/05/31 04:23:50;;;;;;;9.40;8.60;;;7.10;99.90;;;;;;4997761;28;20236;-78
2021/05/31 04:26:16;;;;;;;8.80;8.10;;;7.20;99.90;;;;;;5028924;28;20220;-78
2021/05/31 04:28:42;;;;;;;10.40;9.47;;;7.20;99.90;;;;;;5024398;28;20247;-78
2021/05/31 04:31:09;;;;;;;9.13;8.30;;;7.40;99.90;;;;;;5006602;28;20203;-77
2021/05/31 04:33:35;;;;;;;9.73;8.90;;;7.50;99.90;;;;;;5008858;28;20235;-78
2021/05/31 04:36:03;;;;;;;9.20;8.40;;;7.60;99.90;;;;;;5006677;28;20197;-78
2021/05/31 04:38:29;;;;;;;9.03;8.17;;;7.70;99.90;;;;;;5008940;28;20192;-79
2021/05/31 04:40:56;;;;;;;9.30;8.37;;;7.90;99.90;;;;;;5007651;28;20202;-77
2021/05/31 04:43:22;;;;;;;10.03;8.03;;;8.00;99.90;;;;;;5009580;28;20213;-79
2021/05/31 04:45:49;;;;;;;8.93;7.97;;;8.20;99.90;;;;;;5023012;28;20218;-79
2021/05/31 04:48:16;;;;;;;8.40;6.73;;;8.50;99.90;;;;;;5023819;28;20224;-77
2021/05/31 04:50:42;;;;;;;7.33;6.63;;;8.90;99.90;;;;;;5011806;28;20213;-79
2021/05/31 04:53:10;;;;;;;7.53;5.60;;;9.00;99.90;;;;;;5010882;28;20203;-77
2021/05/31 04:55:37;;;;;;;5.50;5.00;;;9.30;99.90;;;;;;5005039;28;20205;-79
2021/05/31 04:58:04;;;;;;;5.73;5.20;;;9.50;99.90;;;;;;5024295;28;20262;-78
2021/05/31 05:00:30;;;;;;;7.27;6.57;;;9.60;99.90;;;;;;5026068;28;20226;-78
2021/05/31 05:02:57;;;;;;;5.53;5.03;;;9.70;99.90;;;;;;5009915;28;20196;-79
2021/05/31 05:05:25;;;;;;;7.37;5.53;;;9.80;99.90;;;;;;5026844;28;20212;-77
2021/05/31 05:07:51;;;;;;;5.27;4.77;;;9.90;99.90;;;;;;4994338;28;20255;-79
2021/05/31 05:10:21;;;;;;;6.27;4.73;;;10.00;99.90;;;;;;5022139;28;20247;-78
2021/05/31 05:12:49;;;;;;;4.93;3.33;;;10.10;99.90;;;;;;5021937;28;20204;-78
2021/05/31 05:15:19;;;;;;;4.00;3.57;;;10.20;99.90;;;;;;5028846;28;20191;-78
2021/05/31 05:17:47;;;;;;;4.30;3.90;;;10.40;99.90;;;;;;4994536;28;20205;-79
2021/05/31 05:20:14;;;;;;;5.37;4.70;;;10.70;99.90;;;;;;5028796;28;20224;-78
2021/05/31 05:22:41;;;;;;;3.93;3.53;;;10.90;99.90;;;;;;5011199;28;20205;-78
2021/05/31 05:25:08;;;;;;;5.10;4.67;;;11.10;99.90;;;;;;5025361;28;20262;-78
2021/05/31 05:27:36;;;;;;;4.27;3.87;;;11.10;99.90;;;;;;5010585;28;20247;-79
2021/05/31 05:30:05;;;;;;;5.40;4.50;;;11.30;99.90;;;;;;5001676;28;20224;-78
2021/05/31 05:32:31;;;;;;;4.47;4.07;;;11.40;99.90;;;;;;5008773;28;20205;-78
2021/05/31 05:35:06;;;;;;;5.00;4.50;;;11.40;99.90;;;;;;5005209;28;20197;-78
2021/05/31 05:37:33;;;;;;;6.17;4.13;;;11.50;99.90;;;;;;5024154;28;20233;-78
2021/05/31 05:40:18;;;;;;;3.40;3.03;;;12.20;99.90;;;;;;5003761;28;20256;-78
2021/05/31 05:45:48;;;;;;;5.43;4.17;;;13.80;99.90;;;;;;5018209;28;20272;-79
2021/05/31 05:48:15;;;;;;;5.57;4.03;;;14.70;99.90;;;;;;5011276;28;20242;-78
2021/05/31 05:50:42;;;;;;;5.40;4.03;;;15.10;99.90;;;;;;5020553;28;20192;-78
2021/05/31 05:53:08;;;;;;;6.43;4.80;;;15.70;99.90;;;;;;5025584;28;20202;-80
2021/05/31 05:55:34;;;;;;;5.30;4.90;;;16.00;99.90;;;;;;5008234;28;20212;-81
2021/05/31 05:58:02;;;;;;;5.43;4.80;;;16.40;99.90;;;;;;5000286;28;20209;-80
2021/05/31 06:00:31;;;;;;;4.17;3.27;;;16.80;99.90;;;;;;5021051;28;20246;-79
2021/05/31 06:02:57;;;;;;;5.60;5.10;;;17.20;99.90;;;;;;5001759;28;20680;-80
2021/05/31 06:05:25;;;;;;;5.10;4.60;;;17.60;99.90;;;;;;5020676;28;20264;-81
2021/05/31 06:07:51;;;;;;;4.27;3.87;;;17.70;99.90;;;;;;5001894;28;20231;-80
2021/05/31 06:10:18;;;;;;;4.57;4.00;;;17.80;99.90;;;;;;5000297;28;20227;-80
2021/05/31 06:12:45;;;;;;;4.37;3.53;;;17.90;99.90;;;;;;5012071;28;20203;-80
2021/05/31 06:15:14;;;;;;;4.37;3.00;;;18.00;99.90;;;;;;5007666;28;20199;-80
2021/05/31 06:17:41;;;;;;;5.47;4.63;;;17.90;99.90;;;;;;5029021;28;20199;-79
2021/05/31 06:20:08;;;;;;;6.33;4.03;;;18.20;99.90;;;;;;5000169;28;20647;-80
2021/05/31 06:22:39;;;;;;;4.80;4.40;;;18.20;99.90;;;;;;5019711;28;20201;-81
2021/05/31 06:25:07;;;;;;;4.93;4.43;;;18.60;99.90;;;;;;5013035;28;20627;-80
2021/05/31 06:27:34;;;;;;;4.83;4.23;;;19.20;99.90;;;;;;5005550;28;20250;-80
2021/05/31 06:30:00;;;;;;;6.10;5.17;;;19.00;99.90;;;;;;5013506;28;20706;-80
2021/05/31 06:32:28;;;;;;;5.43;4.93;;;19.20;99.90;;;;;;5013074;28;20207;-80
2021/05/31 06:34:54;;;;;;;6.63;6.03;;;19.50;99.90;;;;;;5030864;28;20203;-81
2021/05/31 06:37:20;;;;;;;6.03;5.50;;;19.80;99.90;;;;;;5029725;28;20190;-80
2021/05/31 06:39:47;;;;;;;5.10;4.70;;;19.80;99.90;;;;;;5005356;28;20225;-79
2021/05/31 06:42:13;;;;;;;5.00;4.40;;;20.10;99.70;;;;;;4997038;28;20209;-79
2021/05/31 06:44:40;;;;;;;7.67;7.07;;;20.00;99.90;;;;;;5019107;28;20690;-79
2021/05/31 06:47:07;;;;;;;7.03;6.27;;;19.90;99.40;;;;;;5036882;28;20193;-80
2021/05/31 06:49:35;;;;;;;4.97;4.57;;;19.90;99.70;;;;;;5033884;28;20699;-79
2021/05/31 06:52:04;;;;;;;5.30;4.90;;;20.10;98.80;;;;;;5034773;28;20195;-77
2021/05/31 06:54:30;;;;;;;6.00;5.50;;;20.30;98.90;;;;;;5034831;28;20226;-77
2021/05/31 06:56:57;;;;;;;5.70;5.20;;;20.20;98.10;;;;;;5035197;28;20547;-78
2021/05/31 06:59:24;;;;;;;5.40;4.90;;;20.20;97.80;;;;;;5012149;28;20228;-78
2021/05/31 07:01:50;;;;;;;4.90;4.20;;;20.40;97.90;;;;;;5025232;28;20575;-77
2021/05/31 07:04:18;;;;;;;4.80;4.40;;;20.50;98.50;;;;;;5005820;28;20215;-81
2021/05/31 07:06:46;;;;;;;6.00;5.40;;;21.00;96.90;;;;;;5024973;28;20227;-80
2021/05/31 07:09:12;;;;;;;7.83;7.13;;;21.20;96.50;;;;;;5030272;28;20216;-80
2021/05/31 07:11:43;;;;;;;7.37;6.77;;;21.20;98.00;;;;;;5006157;28;20228;-80
2021/05/31 07:14:17;;;;;;;7.00;6.50;;;21.20;97.50;;;;;;4999010;28;20554;-80
2021/05/31 07:16:44;;;;;;;5.83;5.43;;;21.30;97.90;;;;;;4999650;28;20223;-80
2021/05/31 07:19:11;;;;;;;6.57;6.07;;;21.60;97.90;;;;;;4999399;28;20713;-80
2021/05/31 07:21:39;;;;;;;7.50;6.73;;;21.30;97.20;;;;;;4996958;28;20204;-80
2021/05/31 07:24:09;;;;;;;7.60;7.00;;;21.10;97.70;;;;;;5011216;28;20215;-81
2021/05/31 07:26:37;;;;;;;7.23;6.67;;;21.20;97.40;;;;;;5016441;28;20227;-80
2021/05/31 07:29:04;;;;;;;7.40;6.80;;;21.50;97.70;;;;;;5028042;28;20262;-81
2021/05/31 07:31:30;;;;;;;5.80;5.23;;;21.80;96.80;;;;;;5024583;28;20192;-79
2021/05/31 07:33:57;;;;;;;7.80;7.13;;;21.90;96.50;;;;;;4981786;28;20202;-80
2021/05/31 07:36:24;;;;;;;7.77;7.07;;;22.00;97.10;;;;;;4995180;28;20197;-80
2021/05/31 07:38:50;;;;;;;7.47;6.87;;;22.00;97.00;;;;;;4996505;28;20231;-80
2021/05/31 07:41:19;;;;;;;7.37;6.80;;;22.10;95.90;;;;;;4996352;28;20192;-80
2021/05/31 07:43:45;;;;;;;6.90;6.40;;;22.20;96.80;;;;;;5007927;28;20212;-80
2021/05/31 07:46:13;;;;;;;7.63;7.00;;;22.30;95.30;;;;;;4998760;28;20220;-78
2021/05/31 07:48:41;;;;;;;10.13;6.90;;;21.70;94.30;;;;;;5012061;28;20243;-78
2021/05/31 07:51:17;;;;;;;7.27;6.70;;;21.70;95.90;;;;;;4998958;28;20611;-78
2021/05/31 07:53:45;;;;;;;7.27;6.67;;;21.90;95.30;;;;;;5013618;28;20904;-78
2021/05/31 07:56:12;;;;;;;7.03;6.43;;;21.50;94.50;;;;;;5020719;28;20244;-78
2021/05/31 07:58:41;;;;;;;8.30;6.30;;;22.00;95.20;;;;;;5007089;28;20224;-78
2021/05/31 08:01:07;;;;;;;7.13;6.63;;;22.40;94.30;;;;;;5006847;28;20196;-78
2021/05/31 08:03:34;;;;;;;7.60;6.97;;;22.60;94.10;;;;;;5001060;28;20201;-78
2021/05/31 08:06:01;;;;;;;5.40;4.90;;;22.80;94.00;;;;;;5022308;28;20259;-78
2021/05/31 08:08:27;;;;;;;5.00;4.60;;;22.70;92.10;;;;;;5017244;28;20564;-78
2021/05/31 08:10:54;;;;;;;4.80;4.40;;;22.40;93.30;;;;;;5025008;28;20567;-77
2021/05/31 08:13:21;;;;;;;4.73;4.33;;;22.60;93.20;;;;;;5013590;28;20204;-78
2021/05/31 08:15:49;;;;;;;4.00;3.60;;;22.70;92.20;;;;;;5026889;28;20269;-78
2021/05/31 08:18:15;;;;;;;3.80;3.50;;;22.70;91.70;;;;;;5033037;28;20198;-77
2021/05/31 08:20:42;;;;;;;3.63;3.23;;;22.80;92.50;;;;;;5006020;28;20200;-76
2021/05/31 08:23:09;;;;;;;2.97;2.67;;;22.90;91.70;;;;;;5007996;28;20204;-77
2021/05/31 08:25:36;;;;;;;6.43;5.90;;;22.80;91.30;;;;;;5020516;28;20212;-78
2021/05/31 08:28:03;;;;;;;4.60;3.97;;;23.00;90.50;;;;;;5010631;28;20561;-77
2021/05/31 08:30:30;;;;;;;4.27;3.87;;;23.10;89.70;;;;;;5022577;28;20306;-76
2021/05/31 08:32:59;;;;;;;7.00;6.50;;;23.00;90.50;;;;;;5021462;28;20731;-77
2021/05/31 08:35:25;;;;;;;6.97;6.47;;;23.30;88.80;;;;;;5021353;28;20546;-76
2021/05/31 08:37:52;;;;;;;7.40;6.90;;;22.90;87.60;;;;;;5021340;28;20203;-77
2021/05/31 08:40:19;;;;;;;7.30;6.70;;;22.80;86.60;;;;;;5024204;28;20207;-77
2021/05/31 08:42:46;;;;;;;7.53;6.90;;;23.00;87.90;;;;;;5019136;28;20669;-77
2021/05/31 08:45:14;;;;;;;5.17;4.47;;;23.40;87.10;;;;;;5017285;28;20236;-77
2021/05/31 08:47:43;;;;;;;4.70;4.07;;;23.40;86.20;;;;;;5024552;28;20192;-77
2021/05/31 08:50:12;;;;;;;3.57;3.37;;;23.20;82.80;;;;;;5018299;28;20212;-77
2021/05/31 08:52:38;;;;;;;8.07;7.37;;;22.80;85.20;;;;;;5022266;28;20246;-77
2021/05/31 08:55:07;;;;;;;7.60;7.10;;;23.20;85.50;;;;;;5020964;28;20189;-76
2021/05/31 08:57:33;;;;;;;7.50;7.00;;;23.40;85.20;;;;;;5020638;28;20297;-77
2021/05/31 08:59:59;;;;;;;7.53;6.93;;;23.80;84.70;;;;;;5007708;28;20232;-77
2021/05/31 09:02:30;;;;;;;6.50;6.10;;;23.20;81.80;;;;;;5022758;28;20192;-76
2021/05/31 09:04:56;;;;;;;6.50;6.10;;;22.80;83.00;;;;;;5002742;28;20256;-76
2021/05/31 09:07:24;;;;;;;9.70;6.43;;;22.80;84.00;;;;;;5009765;28;20809;-77
2021/05/31 09:09:53;;;;;;;6.87;6.30;;;23.00;82.30;;;;;;5014709;28;20223;-77
2021/05/31 09:12:23;;;;;;;7.07;6.57;;;23.00;84.20;;;;;;5014609;28;20199;-78
2021/05/31 09:15:00;;;;;;;6.60;6.20;;;23.00;82.30;;;;;;5032691;28;20199;-77
2021/05/31 09:17:28;;;;;;;6.77;6.27;;;23.20;84.20;;;;;;5015206;28;20277;-77
2021/05/31 09:19:55;;;;;;;6.37;5.97;;;23.40;82.60;;;;;;5014983;28;20219;-77
2021/05/31 09:22:22;;;;;;;7.27;6.40;;;23.70;80.20;;;;;;5004028;28;20204;-77
2021/05/31 09:24:57;;;;;;;6.53;6.03;;;23.50;78.60;;;;;;5004162;28;20204;-77
2021/05/31 09:27:24;;;;;;;6.40;5.90;;;23.40;79.40;;;;;;5002723;28;20214;-76
2021/05/31 09:29:55;;;;;;;6.23;5.80;;;23.30;79.70;;;;;;5024414;23;20290;-76
2021/05/31 09:32:22;;;;;;;6.40;5.80;;;22.80;79.40;;;;;;5022794;28;20206;-76
2021/05/31 09:35:00;;;;;;;6.53;6.10;;;22.80;81.90;;;;;;5029894;28;20207;-76
2021/05/31 09:37:27;;;;;;;6.70;6.10;;;23.10;79.80;;;;;;5022362;28;20290;-76
2021/05/31 09:40:00;;;;;;;7.10;6.60;;;23.30;78.20;;;;;;5015438;28;20262;-77
2021/05/31 09:42:27;;;;;;;6.30;5.87;;;23.10;79.80;;;;;;5017512;28;20204;-77
2021/05/31 09:45:07;;;;;;;6.33;5.93;;;23.00;80.50;;;;;;5021752;28;20205;-77
2021/05/31 09:47:35;;;;;;;6.27;5.80;;;22.80;82.80;;;;;;5015975;28;20189;-78
2021/05/31 09:50:02;;;;;;;6.30;5.80;;;23.10;78.80;;;;;;5017813;28;20229;-76
2021/05/31 09:52:28;;;;;;;6.37;5.87;;;23.10;77.00;;;;;;5021644;28;20220;-76
2021/05/31 09:54:55;;;;;;;6.50;6.00;;;23.50;81.10;;;;;;5020706;28;20204;-76
2021/05/31 09:57:24;;;;;;;6.80;6.20;;;24.00;81.00;;;;;;5026590;28;20215;-77
2021/05/31 09:59:53;;;;;;;6.73;5.93;;;24.20;75.90;;;;;;5027615;28;20258;-76
2021/05/31 10:02:31;;;;;;;7.30;6.70;;;23.60;76.70;;;;;;5020971;28;20231;-77
2021/05/31 10:05:05;;;;;;;7.30;6.60;;;23.30;77.60;;;;;;5023672;28;20259;-77
2021/05/31 10:07:48;;;;;;;6.63;6.13;;;23.10;79.30;;;;;;5024564;28;20216;-77
2021/05/31 10:10:15;;;;;;;6.80;6.27;;;23.20;80.10;;;;;;5027169;28;20216;-77
2021/05/31 10:12:44;;;;;;;6.60;6.00;;;23.20;82.00;;;;;;5018522;28;20208;-76
2021/05/31 10:15:12;;;;;;;6.50;6.10;;;23.10;76.00;;;;;;5023641;28;20200;-77
2021/05/31 10:17:39;;;;;;;6.67;6.07;;;22.80;77.60;;;;;;5023071;28;20201;-77
2021/05/31 10:20:07;;;;;;;6.53;6.00;;;22.60;80.50;;;;;;5021700;28;20216;-76
2021/05/31 10:22:36;;;;;;;7.10;6.50;;;22.60;79.20;;;;;;5019793;28;20201;-77
2021/05/31 10:25:06;;;;;;;6.13;5.73;;;22.60;80.10;;;;;;5018858;28;20295;-76
2021/05/31 10:27:34;;;;;;;6.07;5.60;;;22.80;81.60;;;;;;5013365;28;20222;-77
2021/05/31 10:30:06;;;;;;;6.87;6.27;;;22.30;80.20;;;;;;5012397;28;20243;-77
2021/05/31 10:32:32;;;;;;;6.40;6.00;;;22.40;80.60;;;;;;4993985;28;20200;-78
2021/05/31 10:34:59;;;;;;;6.03;5.63;;;22.40;79.20;;;;;;5016307;28;20204;-77
2021/05/31 10:37:28;;;;;;;6.07;5.63;;;22.10;80.60;;;;;;5020208;28;20196;-77
2021/05/31 10:40:03;;;;;;;6.40;5.90;;;21.80;81.30;;;;;;5015518;28;20229;-77
2021/05/31 10:42:45;;;;;;;6.30;5.70;;;22.10;81.50;;;;;;5021647;28;20200;-77
2021/05/31 10:45:25;;;;;;;6.20;5.70;;;22.10;82.10;;;;;;5013067;28;20218;-78
2021/05/31 10:47:56;;;;;;;6.20;5.73;;;22.40;83.10;;;;;;5011930;28;20621;-78
2021/05/31 10:50:30;;;;;;;6.30;5.80;;;22.40;83.10;;;;;;5016973;28;20228;-77
2021/05/31 10:52:57;;;;;;;6.97;6.20;;;22.20;82.30;;;;;;4993095;28;20235;-76
2021/05/31 10:55:25;;;;;;;5.90;5.50;;;22.10;80.60;;;;;;4988178;28;20268;-77
2021/05/31 10:57:53;;;;;;;5.80;5.40;;;22.20;82.80;;;;;;5003171;28;20318;-78
2021/05/31 11:00:26;;;;;;;6.60;6.00;;;22.00;81.90;;;;;;4999800;28;20709;-76
2021/05/31 11:03:08;;;;;;;6.20;5.60;;;21.90;81.60;;;;;;4991669;28;20192;-77
2021/05/31 11:05:36;;;;;;;6.10;5.60;;;21.70;83.50;;;;;;4994658;28;20233;-77
2021/05/31 11:08:04;;;;;;;5.93;5.53;;;21.70;82.20;;;;;;4997260;28;20209;-78
2021/05/31 11:10:32;;;;;;;6.70;6.10;;;21.80;80.40;;;;;;4994181;28;20216;-78
2021/05/31 11:13:10;;;;;;;6.40;5.90;;;21.60;81.00;;;;;;4996362;28;20671;-78
2021/05/31 11:15:37;;;;;;;6.67;6.03;;;21.50;82.10;;;;;;4997408;28;20214;-77
2021/05/31 11:18:04;;;;;;;6.27;5.57;;;21.60;82.40;;;;;;5013681;28;20277;-78
2021/05/31 11:20:32;;;;;;;5.83;5.43;;;21.70;81.80;;;;;;4992972;28;20228;-77
2021/05/31 11:23:00;;;;;;;6.47;5.87;;;21.70;82.50;;;;;;5013950;28;20237;-78
2021/05/31 11:25:28;;;;;;;6.10;5.70;;;21.60;80.80;;;;;;4991672;28;20219;-79
2021/05/31 11:27:57;;;;;;;6.10;5.60;;;21.20;82.00;;;;;;4996096;28;20211;-79
2021/05/31 11:30:27;;;;;;;6.20;5.70;;;21.40;81.00;;;;;;5006012;28;20280;-79
2021/05/31 11:32:56;;;;;;;6.07;5.57;;;21.40;81.50;;;;;;5009662;28;20216;-79
2021/05/31 11:35:23;;;;;;;6.20;5.80;;;21.50;82.30;;;;;;5013794;28;20194;-77
2021/05/31 11:37:51;;;;;;;6.60;6.00;;;21.40;79.60;;;;;;5010620;28;20687;-78
2021/05/31 11:40:23;;;;;;;6.90;6.40;;;21.30;81.40;;;;;;5014276;28;20598;-78
2021/05/31 11:42:51;;;;;;;6.10;5.70;;;21.10;79.70;;;;;;4994964;28;20690;-78
2021/05/31 11:45:19;;;;;;;5.37;4.87;;;20.90;81.60;;;;;;5011958;28;20278;-77
2021/05/31 11:47:52;;;;;;;7.30;6.80;;;20.80;80.70;;;;;;5009863;28;20205;-78
2021/05/31 11:50:22;;;;;;;3.70;3.40;;;21.00;81.40;;;;;;4986600;28;20229;-78
2021/05/31 11:52:48;;;;;;;4.37;3.97;;;20.70;81.80;;;;;;4991637;28;20233;-77
2021/05/31 11:55:17;;;;;;;3.20;2.90;;;20.60;82.50;;;;;;5005766;28;20693;-76
2021/05/31 11:57:45;;;;;;;5.47;3.47;;;20.80;84.40;;;;;;4996351;28;20686;-77
2021/05/31 12:00:17;;;;;;;3.07;2.87;;;20.80;83.10;;;;;;4991903;28;20299;-77
2021/05/31 12:02:44;;;;;;;3.87;2.90;;;20.70;84.40;;;;;;5012336;28;20200;-78
2021/05/31 12:05:11;;;;;;;3.27;2.97;;;20.80;82.70;;;;;;5010405;28;20202;-77
2021/05/31 12:07:43;;;;;;;3.60;3.30;;;20.50;82.80;;;;;;5012723;28;20204;-77
2021/05/31 12:10:11;;;;;;;4.90;2.60;;;20.50;84.20;;;;;;4996046;28;20710;-79
2021/05/31 12:12:39;;;;;;;3.90;3.60;;;20.50;82.70;;;;;;5013523;28;20196;-79
2021/05/31 12:15:06;;;;;;;4.13;2.63;;;20.70;82.90;;;;;;4992536;28;20209;-77
2021/05/31 12:17:34;;;;;;;3.80;3.33;;;20.90;84.80;;;;;;5005713;28;20187;-77
2021/05/31 12:20:02;;;;;;;3.80;3.50;;;20.90;83.70;;;;;;5009514;28;20224;-77
2021/05/31 12:22:30;;;;;;;6.63;6.13;;;20.90;82.70;;;;;;4988383;28;20555;-78
2021/05/31 12:25:00;;;;;;;6.40;5.87;;;20.80;82.50;;;;;;4990619;28;20220;-77
2021/05/31 12:27:28;;;;;;;7.10;6.60;;;20.80;86.70;;;;;;5008720;28;20206;-77
2021/05/31 12:29:56;;;;;;;6.53;6.03;;;20.70;87.10;;;;;;4993865;28;20227;-77
2021/05/31 12:32:26;;;;;;;6.70;6.20;;;20.60;82.80;;;;;;5015878;28;20219;-76
2021/05/31 12:34:53;;;;;;;6.30;5.90;;;20.50;83.50;;;;;;5019039;28;20275;-76
2021/05/31 12:37:24;;;;;;;6.40;5.90;;;20.50;85.80;;;;;;5011865;28;20254;-76
2021/05/31 12:39:52;;;;;;;6.33;5.83;;;20.50;87.00;;;;;;5014405;28;20226;-77
2021/05/31 12:42:23;;;;;;;6.17;5.77;;;20.50;85.30;;;;;;5008744;28;20259;-77
2021/05/31 12:44:50;;;;;;;6.30;5.90;;;20.60;87.90;;;;;;5008068;28;20227;-77
2021/05/31 12:47:18;;;;;;;6.47;6.07;;;20.60;85.80;;;;;;5014169;28;20213;-76
2021/05/31 12:49:46;;;;;;;6.60;6.10;;;20.70;84.40;;;;;;5011187;28;20705;-76
2021/05/31 12:52:12;;;;;;;6.53;5.73;;;20.60;84.70;;;;;;5010667;28;20659;-77
2021/05/31 12:54:39;;;;;;;6.67;6.27;;;20.70;85.20;;;;;;5013841;28;20197;-77
2021/05/31 12:57:10;;;;;;;6.10;5.70;;;20.90;85.20;;;;;;5014088;28;20201;-77
2021/05/31 12:59:39;;;;;;;6.67;6.10;;;20.70;85.80;;;;;;5004480;28;20220;-77
2021/05/31 13:02:16;;;;;;;6.30;5.90;;;20.80;87.10;;;;;;5017871;28;20220;-76